»·PEaware :: N664ST KEWR-KJFK

N664ST :: KEWR-KJFK

FLIGHT INFORMATION

Flight Status: Arrived
Operator: Privately registered:
United States
More flights under this callsign
Pilot: Anonymous 328 (328)
Aircraft: Unknown
(GA7C)
More flights by this aircraft type
Origin: KEWR Newark Intl
United States
Destination: KJFK Kennedy Intl
United States
More flights between these airports :: More routes between these airports
Route: BREZY V39 CMK V419 JUDDS NELIE MAD V1 DPK
File this flight plan on PilotEdge
Remarks:
Altitude:
(Current/Filed)
7,000ft
Speed:
(Current/Filed)
0kts
Departed: 18-Jan-22 04:51 PM
Arrived: 18-Jan-22 05:40 PM
Distance/Time
Traveled:
19nm/0:49
Distance/Time
To Go:
Arrived

Flight Plot

Page will automatically refresh every two minutes.

Flight plan parsing failed; only flown route is shown


Map Options




Map Legend


Flown Route
Filed Route
Departure Airport
Arrival Airport
Navaid (VOR, NDB)
Fix

Horizontal Profiles

Position Reports

Time Latitude Longitude Heading Altitude Ground
Speed
18-Jan-22 16:28 40.695641 -74.164047 295 19ft 0kts
18-Jan-22 16:29 40.695641 -74.164047 295 19ft 0kts
18-Jan-22 16:30 40.695641 -74.164047 295 19ft 0kts
18-Jan-22 16:31 40.695686 -74.164726 241 19ft 14kts
18-Jan-22 16:32 40.691891 -74.167336 206 19ft 15kts
18-Jan-22 16:33 40.687878 -74.169891 205 19ft 16kts
18-Jan-22 16:34 40.683781 -74.172493 205 19ft 15kts
18-Jan-22 16:35 40.679989 -74.174896 205 19ft 14kts
18-Jan-22 16:36 40.676373 -74.177216 205 19ft 12kts
18-Jan-22 16:37 40.675144 -74.178490 288 19ft 11kts
18-Jan-22 16:38 40.677418 -74.178162 26 19ft 4kts
18-Jan-22 16:39 40.680347 -74.176323 26 19ft 0kts
18-Jan-22 16:40 40.680347 -74.176315 26 19ft 0kts
18-Jan-22 16:41 40.680347 -74.176315 26 19ft 0kts
18-Jan-22 16:42 40.680347 -74.176315 26 19ft 0kts
18-Jan-22 16:43 40.680347 -74.176315 26 19ft 0kts
18-Jan-22 16:44 40.680347 -74.176315 26 19ft 0kts
18-Jan-22 16:45 40.680347 -74.176315 26 19ft 0kts
18-Jan-22 16:46 40.680347 -74.176315 26 19ft 0kts
18-Jan-22 16:47 40.680347 -74.176315 26 19ft 0kts
18-Jan-22 16:48 40.680347 -74.176315 26 19ft 0kts
18-Jan-22 16:49 40.680347 -74.176315 26 19ft 0kts
18-Jan-22 16:50 40.687851 -74.171539 25 31ft 167kts
18-Jan-22 16:51 40.730610 -74.124542 46 3181ft 219kts
18-Jan-22 16:52 40.787205 -74.076996 352 6548ft 271kts
18-Jan-22 16:53 40.825748 -74.152908 276 7005ft 276kts
18-Jan-22 16:54 40.870422 -74.221169 5 8846ft 280kts
18-Jan-22 16:55 40.952244 -74.196877 12 11001ft 347kts
18-Jan-22 16:56 41.046963 -74.168312 12 11009ft 349kts
18-Jan-22 16:57 41.140385 -74.134468 32 11004ft 349kts
18-Jan-22 16:58 41.183178 -74.022049 73 11005ft 350kts
18-Jan-22 16:59 41.211235 -73.896034 73 11009ft 388kts
18-Jan-22 17:00 41.242065 -73.755821 73 11007ft 395kts
18-Jan-22 17:01 41.270138 -73.627289 73 11005ft 350kts
18-Jan-22 17:02 41.324673 -73.522720 45 11009ft 349kts
18-Jan-22 17:03 41.392918 -73.430656 45 11004ft 351kts
18-Jan-22 17:04 41.459106 -73.337639 47 11035ft 336kts
18-Jan-22 17:05 41.520584 -73.244400 49 10969ft 332kts
18-Jan-22 17:06 41.579250 -73.149704 50 10950ft 330kts
18-Jan-22 17:07 41.640545 -73.060547 39 10991ft 326kts
18-Jan-22 17:08 41.715134 -73.001167 36 9027ft 312kts
18-Jan-22 17:09 41.769444 -72.921593 48 6536ft 273kts
18-Jan-22 17:10 41.820160 -72.848015 36 4473ft 264kts
18-Jan-22 17:11 41.876278 -72.786247 48 3075ft 259kts
18-Jan-22 17:12 41.907211 -72.703911 104 2885ft 260kts
18-Jan-22 17:13 41.849163 -72.678337 207 2128ft 256kts
18-Jan-22 17:14 41.789528 -72.730652 216 2001ft 257kts
18-Jan-22 17:15 41.735245 -72.792953 221 2003ft 257kts
18-Jan-22 17:16 41.675564 -72.843094 164 3959ft 303kts
18-Jan-22 17:17 41.593018 -72.813019 164 3821ft 281kts
18-Jan-22 17:18 41.522217 -72.783043 161 5291ft 269kts
18-Jan-22 17:19 41.450020 -72.751549 161 7935ft 278kts
18-Jan-22 17:20 41.373890 -72.729424 200 9925ft 288kts
18-Jan-22 17:21 41.308388 -72.791412 217 10006ft 289kts
18-Jan-22 17:22 41.243992 -72.855865 216 10006ft 289kts
18-Jan-22 17:23 41.179993 -72.919739 217 9362ft 284kts
18-Jan-22 17:24 41.116920 -72.982430 216 7983ft 281kts
18-Jan-22 17:25 41.054829 -73.044121 216 6646ft 276kts
18-Jan-22 17:26 40.993713 -73.104660 216 5333ft 271kts
18-Jan-22 17:27 40.933838 -73.163826 216 4855ft 268kts
18-Jan-22 17:28 40.874031 -73.222748 216 4497ft 267kts
18-Jan-22 17:29 40.814507 -73.281311 216 4143ft 265kts
18-Jan-22 17:30 40.786499 -73.359818 263 3546ft 215kts
18-Jan-22 17:31 40.779987 -73.428230 262 3191ft 177kts
18-Jan-22 17:32 40.773766 -73.493942 263 2516ft 177kts
18-Jan-22 17:33 40.767559 -73.558205 262 2499ft 176kts
18-Jan-22 17:34 40.761646 -73.619408 262 2497ft 159kts
18-Jan-22 17:35 40.732342 -73.661263 221 2136ft 159kts
18-Jan-22 17:36 40.700142 -73.701897 231 1421ft 160kts
18-Jan-22 17:37 40.666981 -73.737869 210 585ft 154kts
18-Jan-22 17:38 40.632168 -73.765144 211 20ft 76kts
18-Jan-22 17:39 40.630814 -73.766243 212 20ft 0kts
18-Jan-22 17:40 40.629543 -73.768326 239 20ft 9kts
18-Jan-22 17:41 40.629375 -73.769798 290 20ft 0kts
18-Jan-22 17:42 40.629375 -73.769798 290 20ft 0kts

Navigation Log

Ident Type
Flight plan parsing failed, navigation log unavailable